Observations for JERSEY AIRPORT, United Kingdom (EGJJ)

EGJJ 231120Z 22015KT 9999 -DZ FEW005 BKN007 14/14 Q1020 
EGJJ 231050Z 22016KT 6000 -RADZ SCT003 BKN004 14/14 Q1020   
EGJJ 231020Z 22015KT 5000 -RADZ FEW002 BKN003 14/14 Q1020   
EGJJ 230950Z 22015KT 5000 -RADZ FEW002 BKN003 14/14 Q1021   
EGJJ 230920Z 21014KT 3500 -DZ BR FEW002 BKN003 14/14 Q1020  
EGJJ 230850Z 21014KT 6000 -DZ FEW006 SCT008 BKN010 14/13 Q1021  
EGJJ 230820Z 21013KT 9999 SCT003 BKN012 13/13 Q1021 
EGJJ 230750Z 21013KT 4000 -RA DZ FEW003 BKN004 13/13 Q1021  
EGJJ 230720Z 21014KT 4500 -RA FEW002 BKN003 13/13 Q1021 
EGJJ 230650Z 23015G25KT 4000 RA FEW002 BKN003 13/13 Q1021   
EGJJ 230620Z 22014KT 8000 -RA FEW004 BKN008 13/13 Q1021 
EGJJ 230550Z 23013KT 9999 FEW009 BKN010 13/12 Q1021 
EGJJ 230520Z 24017KT 9999 FEW009 BKN012 13/12 Q1021 
EGJJ 230450Z 24017KT 9999 FEW009 BKN012 13/12 Q1021 RESHRA  
EGJJ 230420Z AUTO 24015KT 9999 SCT011/// BKN013/// BKN016/// 13/12 Q1021 RESHRA 
EGJJ 230350Z AUTO 24015KT 9999 SCT011/// SCT014/// BKN039/// 13/12 Q1021 RERA   
EGJJ 230320Z AUTO 23012KT 9999 -DZ FEW009/// BKN011/// OVC039/// 13/12 Q1021 RERA   
EGJJ 230250Z AUTO 24015KT 9999 RA FEW010/// 13/12 Q1022 REDZ
EGJJ 230220Z AUTO 24015KT 9999 -RA FEW036/// BKN040/// BKN049/// 13/12 Q1022
EGJJ 230150Z AUTO 23015KT 9999 RA FEW009/// SCT011/// BKN042/// 12/12 Q1022 
EGJJ 230120Z AUTO 23014KT 9999 RA FEW008/// SCT011/// BKN027/// 12/12 Q1022 
EGJJ 230050Z AUTO 25017KT 9999 RA SCT008/// BKN009/// OVC010/// 13/12 Q1022 
EGJJ 222350Z AUTO 26015KT 9999 RA FEW016/// SCT019/// BKN027/// 13/11 Q1022 
EGJJ 222320Z AUTO 26015KT 9999 SCT019/// SCT021/// BKN031/// 13/10 Q1022
EGJJ 222250Z AUTO 27015KT 9999 SCT019/// BKN022/// BKN026/// 13/10 Q1022
EGJJ 222220Z AUTO 27016KT 9999 FEW022/// SCT026/// BKN041/// 13/10 Q1022
EGJJ 222150Z AUTO 27017KT 9999 SCT022/// BKN026/// BKN029/// 13/10 Q1022
EGJJ 222120Z AUTO 27017KT 9999 FEW021/// SCT035/// OVC042/// 13/10 Q1023
EGJJ 222050Z 27017KT 9999 FEW018 BKN044 13/10 Q1022 
EGJJ 222020Z 26018KT 9999 FEW018 BKN039 13/10 Q1022 
EGJJ 221950Z 27018KT 9999 FEW022 BKN046 13/10 Q1022 
EGJJ 221920Z 27017KT 9999 FEW023 BKN046 13/09 Q1022 
EGJJ 221850Z 27018KT 9999 FEW022 BKN045 13/09 Q1022 
EGJJ 221820Z 27019KT 9999 FEW025 BKN047 13/09 Q1022 
EGJJ 221750Z 28018KT 9999 SCT022 BKN048 13/09 Q1022 
EGJJ 221720Z 27019KT 9999 FEW020 BKN048 13/09 Q1022 
EGJJ 221650Z 27018KT 9999 FEW020 BKN043 13/09 Q1021 
EGJJ 221620Z 28016KT 9999 FEW025 SCT045 13/08 Q1021 
EGJJ 221550Z 28018KT 9999 FEW023 SCT049 13/09 Q1021 
EGJJ 221520Z 28020KT 9999 FEW026 BKN049 13/09 Q1021 
EGJJ 221450Z 28018KT 9999 VCSH SCT026 BKN045 13/09 Q1021
EGJJ 221420Z 28021G32KT 9999 SCT026 13/08 Q1021 
EGJJ 221350Z 28021G32KT 9999 -SHRA SCT023 BKN026 13/09 Q1021
EGJJ 221320Z 28022KT 9999 VCSH FEW023CB BKN032 13/09 Q1021  
EGJJ 221250Z 28021KT 9999 7000NE -SHRA FEW023CB BKN032 13/09 Q1021  
EGJJ 221220Z 28020G31KT 9999 VCSH FEW026CB BKN032 13/08 Q1021   
EGJJ 221150Z 28020G30KT 9999 VCSH FEW025CB SCT030 13/08 Q1021   
EGJJ 221120Z 29020KT 9999 VCSH FEW025CB SCT030 14/08 Q1020  
EGJJ 221050Z 29020KT 9999 VCSH FEW025CB SCT030 13/09 Q1020